sensor_id;sensor_type;location;lat;lon;timestamp;pressure;altitude;pressure_sealevel;temperature;humidity
78337;BME280;67610;51.588;7.002;2023-08-01T00:02:25;99228.28;;;18.23;79.89
78337;BME280;67610;51.588;7.002;2023-08-01T00:04:50;99222.75;;;18.25;80.10
78337;BME280;67610;51.588;7.002;2023-08-01T00:07:15;99223.66;;;18.19;79.99
78337;BME280;67610;51.588;7.002;2023-08-01T00:09:41;99214.53;;;18.14;79.60
78337;BME280;67610;51.588;7.002;2023-08-01T00:12:06;99213.72;;;18.14;80.10
78337;BME280;67610;51.588;7.002;2023-08-01T00:14:31;99211.63;;;18.16;80.39
78337;BME280;67610;51.588;7.002;2023-08-01T00:16:58;99205.03;;;18.19;80.48
78337;BME280;67610;51.588;7.002;2023-08-01T00:19:23;99204.22;;;18.18;80.57
78337;BME280;67610;51.588;7.002;2023-08-01T00:21:48;99196.06;;;18.08;80.33
78337;BME280;67610;51.588;7.002;2023-08-01T00:24:14;99186.78;;;18.10;80.20
78337;BME280;67610;51.588;7.002;2023-08-01T00:26:39;99184.69;;;18.12;80.24
78337;BME280;67610;51.588;7.002;2023-08-01T00:29:04;99189.78;;;18.14;80.24
78337;BME280;67610;51.588;7.002;2023-08-01T00:31:30;99190.13;;;18.18;79.98
78337;BME280;67610;51.588;7.002;2023-08-01T00:33:55;99177.38;;;18.20;79.90
78337;BME280;67610;51.588;7.002;2023-08-01T00:36:20;99176.13;;;18.22;79.94
78337;BME280;67610;51.588;7.002;2023-08-01T00:38:46;99181.19;;;18.24;79.86
78337;BME280;67610;51.588;7.002;2023-08-01T00:41:12;99168.91;;;18.23;80.03
78337;BME280;67610;51.588;7.002;2023-08-01T00:43:37;99173.66;;;18.21;80.18
78337;BME280;67610;51.588;7.002;2023-08-01T00:46:04;99168.59;;;18.19;80.33
78337;BME280;67610;51.588;7.002;2023-08-01T00:48:31;99168.59;;;18.19;79.82
78337;BME280;67610;51.588;7.002;2023-08-01T00:51:02;99171.00;;;18.21;79.95
78337;BME280;67610;51.588;7.002;2023-08-01T00:53:30;99160.16;;;18.22;79.62
78337;BME280;67610;51.588;7.002;2023-08-01T00:55:56;99163.13;;;18.26;79.69
78337;BME280;67610;51.588;7.002;2023-08-01T00:58:22;99153.19;;;18.21;79.60
78337;BME280;67610;51.588;7.002;2023-08-01T01:00:48;99144.88;;;18.18;79.69
78337;BME280;67610;51.588;7.002;2023-08-01T01:03:14;99148.72;;;18.10;80.43
78337;BME280;67610;51.588;7.002;2023-08-01T01:06:25;99143.03;;;18.06;79.92
78337;BME280;67610;51.588;7.002;2023-08-01T01:08:30;99138.53;;;18.07;80.21
78337;BME280;67610;51.588;7.002;2023-08-01T01:10:56;99132.06;;;18.03;80.16
78337;BME280;67610;51.588;7.002;2023-08-01T01:13:21;99135.44;;;17.98;80.12
78337;BME280;67610;51.588;7.002;2023-08-01T01:15:46;99134.31;;;17.94;80.63
78337;BME280;67610;51.588;7.002;2023-08-01T01:18:13;99128.28;;;17.99;80.09
78337;BME280;67610;51.588;7.002;2023-08-01T01:20:38;99121.94;;;17.88;80.65
78337;BME280;67610;51.588;7.002;2023-08-01T01:23:05;99123.56;;;17.89;80.40
78337;BME280;67610;51.588;7.002;2023-08-01T01:25:32;99121.94;;;17.88;80.30
78337;BME280;67610;51.588;7.002;2023-08-01T01:27:59;99120.75;;;17.96;80.12
78337;BME280;67610;51.588;7.002;2023-08-01T01:30:26;99110.25;;;17.89;80.40
78337;BME280;67610;51.588;7.002;2023-08-01T01:32:52;99112.34;;;17.87;80.39
78337;BME280;67610;51.588;7.002;2023-08-01T01:35:18;99107.03;;;17.87;79.92
78337;BME280;67610;51.588;7.002;2023-08-01T01:37:43;99099.84;;;17.88;80.31
78337;BME280;67610;51.588;7.002;2023-08-01T01:40:09;99096.72;;;17.91;80.44
78337;BME280;67610;51.588;7.002;2023-08-01T01:42:34;99090.13;;;17.93;79.99
78337;BME280;67610;51.588;7.002;2023-08-01T01:44:59;99082.94;;;17.94;80.31
78337;BME280;67610;51.588;7.002;2023-08-01T01:47:25;99086.66;;;17.93;79.74
78337;BME280;67610;51.588;7.002;2023-08-01T01:49:50;99090.94;;;17.94;79.62
78337;BME280;67610;51.588;7.002;2023-08-01T01:52:15;99080.75;;;17.91;79.33
78337;BME280;67610;51.588;7.002;2023-08-01T01:54:41;99079.16;;;17.90;80.24
78337;BME280;67610;51.588;7.002;2023-08-01T01:57:06;99079.63;;;17.87;80.31
78337;BME280;67610;51.588;7.002;2023-08-01T01:59:32;99088.97;;;17.89;80.15
78337;BME280;67610;51.588;7.002;2023-08-01T02:01:57;99078.09;;;17.91;79.91
78337;BME280;67610;51.588;7.002;2023-08-01T02:04:22;99076.50;;;17.90;80.22
78337;BME280;67610;51.588;7.002;2023-08-01T02:06:48;99071.97;;;17.90;80.03
78337;BME280;67610;51.588;7.002;2023-08-01T02:09:13;99073.84;;;17.90;80.07
78337;BME280;67610;51.588;7.002;2023-08-01T02:11:38;99076.25;;;17.91;79.77
78337;BME280;67610;51.588;7.002;2023-08-01T02:14:04;99080.75;;;17.91;80.22
78337;BME280;67610;51.588;7.002;2023-08-01T02:16:29;99076.50;;;17.90;80.10
78337;BME280;67610;51.588;7.002;2023-08-01T02:18:55;99082.84;;;17.89;80.33
78337;BME280;67610;51.588;7.002;2023-08-01T02:21:20;99079.94;;;17.90;80.51
78337;BME280;67610;51.588;7.002;2023-08-01T02:23:45;99076.00;;;17.93;80.13
78337;BME280;67610;51.588;7.002;2023-08-01T02:26:11;99083.84;;;17.99;80.10
78337;BME280;67610;51.588;7.002;2023-08-01T02:28:37;99086.75;;;17.98;80.15
78337;BME280;67610;51.588;7.002;2023-08-01T02:31:02;99075.28;;;17.97;80.15
78337;BME280;67610;51.588;7.002;2023-08-01T02:33:28;99077.50;;;18.00;79.91
78337;BME280;67610;51.588;7.002;2023-08-01T02:35:53;99076.09;;;17.98;79.91
78337;BME280;67610;51.588;7.002;2023-08-01T02:38:18;99085.94;;;17.97;80.14
78337;BME280;67610;51.588;7.002;2023-08-01T02:40:44;99083.84;;;17.99;80.41
78337;BME280;67610;51.588;7.002;2023-08-01T02:43:09;99085.72;;;17.99;80.28
78337;BME280;67610;51.588;7.002;2023-08-01T02:45:35;99079.16;;;17.90;80.70
78337;BME280;67610;51.588;7.002;2023-08-01T02:48:00;99083.97;;;17.93;80.65
78337;BME280;67610;51.588;7.002;2023-08-01T02:50:25;99086.50;;;17.99;79.97
78337;BME280;67610;51.588;7.002;2023-08-01T02:52:51;99095.75;;;17.97;80.21
78337;BME280;67610;51.588;7.002;2023-08-01T02:55:16;99094.16;;;17.96;79.88
78337;BME280;67610;51.588;7.002;2023-08-01T02:57:41;99095.19;;;17.95;80.00
78337;BME280;67610;51.588;7.002;2023-08-01T03:00:07;99091.41;;;17.91;80.58
78337;BME280;67610;51.588;7.002;2023-08-01T03:02:37;99102.50;;;17.88;80.62
78337;BME280;67610;51.588;7.002;2023-08-01T03:05:02;99097.78;;;17.90;80.72
78337;BME280;67610;51.588;7.002;2023-08-01T03:07:30;99102.59;;;17.93;80.66
78337;BME280;67610;51.588;7.002;2023-08-01T03:09:55;99106.66;;;17.95;80.32
78337;BME280;67610;51.588;7.002;2023-08-01T03:12:20;99098.34;;;17.92;80.59
78337;BME280;67610;51.588;7.002;2023-08-01T03:14:46;99096.25;;;17.94;79.82
78337;BME280;67610;51.588;7.002;2023-08-01T03:17:12;99105.25;;;17.93;80.08
78337;BME280;67610;51.588;7.002;2023-08-01T03:19:38;99105.25;;;17.93;80.37
78337;BME280;67610;51.588;7.002;2023-08-01T03:22:04;99106.66;;;17.95;79.86
78337;BME280;67610;51.588;7.002;2023-08-01T03:24:30;99107.81;;;17.88;80.15
78337;BME280;67610;51.588;7.002;2023-08-01T03:26:55;99108.31;;;17.85;80.71
78337;BME280;67610;51.588;7.002;2023-08-01T03:29:20;99116.84;;;17.87;80.16
78337;BME280;67610;51.588;7.002;2023-08-01T03:31:46;99119.06;;;17.90;80.10
78337;BME280;67610;51.588;7.002;2023-08-01T03:34:11;99103.31;;;17.88;80.08
78337;BME280;67610;51.588;7.002;2023-08-01T03:36:38;99103.78;;;17.85;80.20
78337;BME280;67610;51.588;7.002;2023-08-01T03:39:03;99112.00;;;17.84;79.99
78337;BME280;67610;51.588;7.002;2023-08-01T03:41:29;99115.13;;;17.81;80.07
78337;BME280;67610;51.588;7.002;2023-08-01T03:43:54;99117.88;;;17.86;80.14
78337;BME280;67610;51.588;7.002;2023-08-01T03:46:20;99120.34;;;17.87;80.13
78337;BME280;67610;51.588;7.002;2023-08-01T03:48:45;99117.78;;;17.81;79.88
78337;BME280;67610;51.588;7.002;2023-08-01T03:51:10;99122.53;;;17.79;79.79
78337;BME280;67610;51.588;7.002;2023-08-01T03:53:36;99123.72;;;17.71;79.73
78337;BME280;67610;51.588;7.002;2023-08-01T03:56:02;99134.00;;;17.68;79.73
78337;BME280;67610;51.588;7.002;2023-08-01T03:58:27;99133.69;;;17.64;80.04
78337;BME280;67610;51.588;7.002;2023-08-01T04:00:52;99133.88;;;17.63;80.27
78337;BME280;67610;51.588;7.002;2023-08-01T04:03:18;99134.00;;;17.68;80.05
78337;BME280;67610;51.588;7.002;2023-08-01T04:05:44;99134.56;;;17.70;79.75
78337;BME280;67610;51.588;7.002;2023-08-01T04:08:09;99127.53;;;17.64;79.23
78337;BME280;67610;51.588;7.002;2023-08-01T04:10:34;99130.09;;;17.59;79.88
78337;BME280;67610;51.588;7.002;2023-08-01T04:13:00;99129.97;;;17.54;79.69
78337;BME280;67610;51.588;7.002;2023-08-01T04:15:25;99134.47;;;17.53;80.13
78337;BME280;67610;51.588;7.002;2023-08-01T04:17:50;99141.66;;;17.53;79.83
78337;BME280;67610;51.588;7.002;2023-08-01T04:20:16;99131.44;;;17.50;79.78
78337;BME280;67610;51.588;7.002;2023-08-01T04:22:41;99139.00;;;17.53;79.39
78337;BME280;67610;51.588;7.002;2023-08-01T04:25:07;99143.94;;;17.49;79.79
78337;BME280;67610;51.588;7.002;2023-08-01T04:27:34;99144.19;;;17.48;79.41
78337;BME280;67610;51.588;7.002;2023-08-01T04:30:01;99147.28;;;17.44;79.60
78337;BME280;67610;51.588;7.002;2023-08-01T04:32:27;99141.41;;;17.42;79.52
78337;BME280;67610;51.588;7.002;2023-08-01T04:34:53;99147.66;;;17.36;79.47
78337;BME280;67610;51.588;7.002;2023-08-01T04:37:29;99144.63;;;17.44;79.33
78337;BME280;67610;51.588;7.002;2023-08-01T04:39:54;99140.13;;;17.45;79.42
78337;BME280;67610;51.588;7.002;2023-08-01T04:42:19;99141.16;;;17.44;79.20
78337;BME280;67610;51.588;7.002;2023-08-01T04:44:45;99154.34;;;17.51;79.45
78337;BME280;67610;51.588;7.002;2023-08-01T04:47:10;99148.78;;;17.40;79.44
78337;BME280;67610;51.588;7.002;2023-08-01T04:49:38;99147.53;;;17.43;79.55
78337;BME280;67610;51.588;7.002;2023-08-01T04:52:04;99145.91;;;17.42;79.46
78337;BME280;67610;51.588;7.002;2023-08-01T04:54:30;99142.44;;;17.41;79.34
78337;BME280;67610;51.588;7.002;2023-08-01T04:56:55;99149.94;;;17.44;79.34
78337;BME280;67610;51.588;7.002;2023-08-01T04:59:21;99154.00;;;17.35;79.73
78337;BME280;67610;51.588;7.002;2023-08-01T05:01:47;99150.53;;;17.35;79.70
78337;BME280;67610;51.588;7.002;2023-08-01T05:04:12;99152.38;;;17.34;79.48
78337;BME280;67610;51.588;7.002;2023-08-01T05:06:38;99158.75;;;17.33;79.55
78337;BME280;67610;51.588;7.002;2023-08-01T05:09:03;99156.78;;;17.29;79.84
78337;BME280;67610;51.588;7.002;2023-08-01T05:11:30;99162.91;;;17.29;79.76
78337;BME280;67610;51.588;7.002;2023-08-01T05:13:55;99156.31;;;17.32;79.09
78337;BME280;67610;51.588;7.002;2023-08-01T05:16:21;99167.63;;;17.27;79.73
78337;BME280;67610;51.588;7.002;2023-08-01T05:18:46;99161.84;;;17.30;79.95
78337;BME280;67610;51.588;7.002;2023-08-01T05:21:11;99163.59;;;17.36;79.42
78337;BME280;67610;51.588;7.002;2023-08-01T05:23:37;99171.91;;;17.28;79.76
78337;BME280;67610;51.588;7.002;2023-08-01T05:26:02;99175.94;;;17.31;79.84
78337;BME280;67610;51.588;7.002;2023-08-01T05:28:28;99174.69;;;17.33;80.04
78337;BME280;67610;51.588;7.002;2023-08-01T05:30:53;99172.16;;;17.38;79.59
78337;BME280;67610;51.588;7.002;2023-08-01T05:33:18;99176.06;;;17.48;79.19
78337;BME280;67610;51.588;7.002;2023-08-01T05:35:44;99182.56;;;17.52;79.29
78337;BME280;67610;51.588;7.002;2023-08-01T05:38:09;99181.97;;;17.50;79.21
78337;BME280;67610;51.588;7.002;2023-08-01T05:40:34;99188.09;;;17.50;79.54
78337;BME280;67610;51.588;7.002;2023-08-01T05:43:00;99189.03;;;17.67;78.98
78337;BME280;67610;51.588;7.002;2023-08-01T05:45:26;99187.88;;;17.75;78.47
78337;BME280;67610;51.588;7.002;2023-08-01T05:47:51;99189.13;;;17.84;77.81
78337;BME280;67610;51.588;7.002;2023-08-01T05:50:17;99192.63;;;17.84;78.47
78337;BME280;67610;51.588;7.002;2023-08-01T05:52:42;99186.34;;;17.90;78.00
78337;BME280;67610;51.588;7.002;2023-08-01T05:55:08;99182.91;;;17.90;77.36
78337;BME280;67610;51.588;7.002;2023-08-01T05:57:33;99192.47;;;17.91;77.66
78337;BME280;67610;51.588;7.002;2023-08-01T05:59:58;99182.31;;;17.88;77.51
78337;BME280;67610;51.588;7.002;2023-08-01T06:02:24;99188.56;;;17.93;77.06
78337;BME280;67610;51.588;7.002;2023-08-01T06:04:49;99184.50;;;17.91;77.37
78337;BME280;67610;51.588;7.002;2023-08-01T06:07:15;99198.25;;;17.88;77.69
78337;BME280;67610;51.588;7.002;2023-08-01T06:09:40;99190.06;;;17.89;77.37
78337;BME280;67610;51.588;7.002;2023-08-01T06:12:06;99197.22;;;17.89;77.68
78337;BME280;67610;51.588;7.002;2023-08-01T06:14:31;99198.94;;;17.95;77.10
78337;BME280;67610;51.588;7.002;2023-08-01T06:16:57;99199.44;;;17.92;77.17
78337;BME280;67610;51.588;7.002;2023-08-01T06:19:23;99193.97;;;17.98;76.66
78337;BME280;67610;51.588;7.002;2023-08-01T06:21:48;99199.50;;;17.97;76.39
78337;BME280;67610;51.588;7.002;2023-08-01T06:24:13;99199.19;;;17.93;76.75
78337;BME280;67610;51.588;7.002;2023-08-01T06:26:39;99195.94;;;18.03;76.50
78337;BME280;67610;51.588;7.002;2023-08-01T06:29:04;99203.47;;;18.06;76.74
78337;BME280;67610;51.588;7.002;2023-08-01T06:31:30;99203.91;;;18.03;76.34
78337;BME280;67610;51.588;7.002;2023-08-01T06:33:55;99199.06;;;18.00;77.00
78337;BME280;67610;51.588;7.002;2023-08-01T06:36:21;99199.38;;;18.15;76.00
78337;BME280;67610;51.588;7.002;2023-08-01T06:38:46;99206.38;;;18.33;76.07
78337;BME280;67610;51.588;7.002;2023-08-01T06:41:12;99201.06;;;18.33;75.45
78337;BME280;67610;51.588;7.002;2023-08-01T06:43:37;99200.03;;;18.34;75.78
78337;BME280;67610;51.588;7.002;2023-08-01T06:46:04;99204.38;;;18.51;74.86
78337;BME280;67610;51.588;7.002;2023-08-01T06:48:30;99211.97;;;18.59;74.76
78337;BME280;67610;51.588;7.002;2023-08-01T06:50:55;99203.06;;;18.65;74.41
78337;BME280;67610;51.588;7.002;2023-08-01T06:53:20;99213.00;;;18.70;74.11
78337;BME280;67610;51.588;7.002;2023-08-01T06:55:46;99220.19;;;18.69;74.12
78337;BME280;67610;51.588;7.002;2023-08-01T06:58:12;99223.66;;;18.70;74.52
78337;BME280;67610;51.588;7.002;2023-08-01T07:00:37;99210.84;;;18.83;74.03
78337;BME280;67610;51.588;7.002;2023-08-01T07:03:02;99213.19;;;18.97;73.50
78337;BME280;67610;51.588;7.002;2023-08-01T07:05:28;99218.56;;;19.13;73.38
78337;BME280;67610;51.588;7.002;2023-08-01T07:07:53;99216.38;;;19.10;72.98
78337;BME280;67610;51.588;7.002;2023-08-01T07:10:18;99214.19;;;19.07;72.85
78337;BME280;67610;51.588;7.002;2023-08-01T07:12:44;99225.81;;;19.18;72.41
78337;BME280;67610;51.588;7.002;2023-08-01T07:15:10;99225.59;;;19.19;72.53
78337;BME280;67610;51.588;7.002;2023-08-01T07:17:35;99222.56;;;19.44;71.67
78337;BME280;67610;51.588;7.002;2023-08-01T07:20:01;99223.41;;;19.66;71.57
78337;BME280;67610;51.588;7.002;2023-08-01T07:22:26;99225.34;;;19.87;70.06
78337;BME280;67610;51.588;7.002;2023-08-01T07:24:54;99224.50;;;20.03;70.36
78337;BME280;67610;51.588;7.002;2023-08-01T07:27:21;99232.75;;;20.02;69.32
78337;BME280;67610;51.588;7.002;2023-08-01T07:29:46;99235.78;;;20.10;69.04
78337;BME280;67610;51.588;7.002;2023-08-01T07:32:12;99231.31;;;20.33;68.82
78337;BME280;67610;51.588;7.002;2023-08-01T07:34:37;99230.00;;;20.57;67.59
78337;BME280;67610;51.588;7.002;2023-08-01T07:37:03;99233.41;;;20.52;67.58
78337;BME280;67610;51.588;7.002;2023-08-01T07:39:29;99230.13;;;20.45;67.90
78337;BME280;67610;51.588;7.002;2023-08-01T07:41:55;99233.53;;;20.41;67.48
78337;BME280;67610;51.588;7.002;2023-08-01T07:44:21;99232.84;;;20.50;67.58
78337;BME280;67610;51.588;7.002;2023-08-01T07:46:46;99236.34;;;20.51;66.57
78337;BME280;67610;51.588;7.002;2023-08-01T07:49:14;99224.63;;;20.57;66.39
78337;BME280;67610;51.588;7.002;2023-08-01T07:51:39;99229.03;;;20.68;66.54
78337;BME280;67610;51.588;7.002;2023-08-01T07:54:05;99233.34;;;20.69;65.77
78337;BME280;67610;51.588;7.002;2023-08-01T07:56:31;99232.31;;;20.75;65.51
78337;BME280;67610;51.588;7.002;2023-08-01T07:58:56;99234.94;;;20.70;65.77
78337;BME280;67610;51.588;7.002;2023-08-01T08:01:22;99230.19;;;20.77;65.13
78337;BME280;67610;51.588;7.002;2023-08-01T08:03:47;99239.72;;;20.68;65.40
78337;BME280;67610;51.588;7.002;2023-08-01T08:06:13;99233.81;;;20.66;64.85
78337;BME280;67610;51.588;7.002;2023-08-01T08:08:38;99237.03;;;20.63;64.95
78337;BME280;67610;51.588;7.002;2023-08-01T08:11:04;99234.59;;;20.88;64.58
78337;BME280;67610;51.588;7.002;2023-08-01T08:13:29;99249.28;;;20.85;63.97
78337;BME280;67610;51.588;7.002;2023-08-01T08:15:55;99235.53;;;21.30;61.85
78337;BME280;67610;51.588;7.002;2023-08-01T08:18:22;99246.84;;;21.69;61.62
78337;BME280;67610;51.588;7.002;2023-08-01T08:20:47;99235.56;;;22.04;61.23
78337;BME280;67610;51.588;7.002;2023-08-01T08:23:13;99239.38;;;22.13;60.74
78337;BME280;67610;51.588;7.002;2023-08-01T08:25:40;99235.31;;;22.72;59.16
78337;BME280;67610;51.588;7.002;2023-08-01T08:28:05;99245.47;;;22.60;59.10
78337;BME280;67610;51.588;7.002;2023-08-01T08:30:30;99241.94;;;22.50;57.90
78337;BME280;67610;51.588;7.002;2023-08-01T08:32:57;99245.28;;;22.20;58.97
78337;BME280;67610;51.588;7.002;2023-08-01T08:35:23;99248.94;;;21.99;59.82
78337;BME280;67610;51.588;7.002;2023-08-01T08:37:48;99249.13;;;21.87;58.98
78337;BME280;67610;51.588;7.002;2023-08-01T08:40:13;99253.00;;;21.75;60.08
78337;BME280;67610;51.588;7.002;2023-08-01T08:42:39;99245.22;;;22.10;60.12
78337;BME280;67610;51.588;7.002;2023-08-01T08:45:06;99242.31;;;22.78;58.24
78337;BME280;67610;51.588;7.002;2023-08-01T08:47:36;99243.97;;;23.25;57.18
78337;BME280;67610;51.588;7.002;2023-08-01T08:50:01;99246.94;;;23.79;54.21
78337;BME280;67610;51.588;7.002;2023-08-01T08:52:27;99247.72;;;23.99;54.16
78337;BME280;67610;51.588;7.002;2023-08-01T08:54:52;99241.06;;;23.72;54.88
78337;BME280;67610;51.588;7.002;2023-08-01T08:57:19;99250.69;;;23.83;53.72
78337;BME280;67610;51.588;7.002;2023-08-01T08:59:46;99239.59;;;24.29;52.34
78337;BME280;67610;51.588;7.002;2023-08-01T09:02:13;99246.97;;;24.63;51.82
78337;BME280;67610;51.588;7.002;2023-08-01T09:04:39;99245.38;;;25.11;51.28
78337;BME280;67610;51.588;7.002;2023-08-01T09:07:07;99250.44;;;25.17;50.90
78337;BME280;67610;51.588;7.002;2023-08-01T09:09:34;99244.38;;;25.69;48.56
78337;BME280;67610;51.588;7.002;2023-08-01T09:11:59;99244.66;;;25.96;46.24
78337;BME280;67610;51.588;7.002;2023-08-01T09:14:25;99249.03;;;26.16;47.52
78337;BME280;67610;51.588;7.002;2023-08-01T09:16:50;99249.09;;;26.34;47.93
78337;BME280;67610;51.588;7.002;2023-08-01T09:19:24;99248.19;;;25.92;48.78
78337;BME280;67610;51.588;7.002;2023-08-01T09:21:50;99247.16;;;25.88;48.64
78337;BME280;67610;51.588;7.002;2023-08-01T09:24:19;99251.63;;;25.74;48.12
78337;BME280;67610;51.588;7.002;2023-08-01T09:26:46;99253.16;;;25.51;48.89
78337;BME280;67610;51.588;7.002;2023-08-01T09:29:12;99245.34;;;25.16;46.63
78337;BME280;67610;51.588;7.002;2023-08-01T09:31:39;99253.81;;;24.35;46.41
78337;BME280;67610;51.588;7.002;2023-08-01T09:34:06;99256.31;;;24.06;49.14
78337;BME280;67610;51.588;7.002;2023-08-01T09:36:42;99252.31;;;23.84;50.35
78337;BME280;67610;51.588;7.002;2023-08-01T09:39:07;99259.56;;;23.78;51.28
78337;BME280;67610;51.588;7.002;2023-08-01T09:41:33;99256.38;;;23.61;50.59
78337;BME280;67610;51.588;7.002;2023-08-01T09:43:58;99257.16;;;23.61;51.60
78337;BME280;67610;51.588;7.002;2023-08-01T09:46:24;99251.81;;;23.41;51.11
78337;BME280;67610;51.588;7.002;2023-08-01T09:48:50;99253.66;;;23.36;51.42
78337;BME280;67610;51.588;7.002;2023-08-01T09:51:17;99254.47;;;23.36;52.05
78337;BME280;67610;51.588;7.002;2023-08-01T09:53:50;99258.50;;;23.39;52.21
78337;BME280;67610;51.588;7.002;2023-08-01T09:56:20;99259.31;;;23.39;52.31
78337;BME280;67610;51.588;7.002;2023-08-01T09:58:46;99250.19;;;23.50;53.01
78337;BME280;67610;51.588;7.002;2023-08-01T10:01:13;99254.22;;;23.68;52.35
78337;BME280;67610;51.588;7.002;2023-08-01T10:03:41;99259.59;;;23.58;52.74
78337;BME280;67610;51.588;7.002;2023-08-01T10:06:11;99270.00;;;23.14;54.30
78337;BME280;67610;51.588;7.002;2023-08-01T10:08:38;99271.56;;;22.95;55.33
78337;BME280;67610;51.588;7.002;2023-08-01T10:11:04;99273.66;;;22.68;56.51
78337;BME280;67610;51.588;7.002;2023-08-01T10:13:31;99270.88;;;22.58;57.55
78337;BME280;67610;51.588;7.002;2023-08-01T10:15:57;99264.78;;;22.62;57.60
78337;BME280;67610;51.588;7.002;2023-08-01T10:18:23;99266.84;;;22.55;57.61
78337;BME280;67610;51.588;7.002;2023-08-01T10:20:48;99274.13;;;22.55;58.19
78337;BME280;67610;51.588;7.002;2023-08-01T10:23:15;99277.53;;;22.40;59.06
78337;BME280;67610;51.588;7.002;2023-08-01T10:25:41;99274.56;;;22.32;59.18
78337;BME280;67610;51.588;7.002;2023-08-01T10:28:07;99275.31;;;22.22;59.83
78337;BME280;67610;51.588;7.002;2023-08-01T10:30:32;99268.84;;;22.18;59.90
78337;BME280;67610;51.588;7.002;2023-08-01T10:32:59;99280.06;;;22.10;59.37
78337;BME280;67610;51.588;7.002;2023-08-01T10:35:38;99293.44;;;22.10;58.99
78337;BME280;67610;51.588;7.002;2023-08-01T10:38:08;99301.78;;;21.82;60.18
78337;BME280;67610;51.588;7.002;2023-08-01T10:43:04;99303.81;;;21.38;61.74
78337;BME280;67610;51.588;7.002;2023-08-01T10:45:30;99307.34;;;20.90;62.61
78337;BME280;67610;51.588;7.002;2023-08-01T10:48:09;99306.84;;;20.50;64.28
78337;BME280;67610;51.588;7.002;2023-08-01T10:50:35;99299.63;;;20.50;64.07
78337;BME280;67610;51.588;7.002;2023-08-01T10:53:08;99312.09;;;20.45;64.00
78337;BME280;67610;51.588;7.002;2023-08-01T10:55:45;99296.63;;;20.25;65.29
78337;BME280;67610;51.588;7.002;2023-08-01T10:58:12;99288.75;;;20.35;65.64
78337;BME280;67610;51.588;7.002;2023-08-01T11:00:38;99290.63;;;20.56;65.45
78337;BME280;67610;51.588;7.002;2023-08-01T11:03:03;99291.97;;;20.80;65.99
78337;BME280;67610;51.588;7.002;2023-08-01T11:05:29;99295.34;;;21.19;65.61
78337;BME280;67610;51.588;7.002;2023-08-01T11:07:59;99291.97;;;21.29;65.50
78337;BME280;67610;51.588;7.002;2023-08-01T11:10:27;99291.31;;;21.75;64.22
78337;BME280;67610;51.588;7.002;2023-08-01T11:12:53;99292.94;;;22.13;64.24
78337;BME280;67610;51.588;7.002;2023-08-01T11:15:19;99303.03;;;22.53;64.51
78337;BME280;67610;51.588;7.002;2023-08-01T11:17:52;99300.63;;;22.51;62.93
78337;BME280;67610;51.588;7.002;2023-08-01T11:20:19;99303.41;;;22.71;61.67
78337;BME280;67610;51.588;7.002;2023-08-01T11:22:55;99298.66;;;22.93;60.92
78337;BME280;67610;51.588;7.002;2023-08-01T11:25:34;99308.38;;;23.10;58.75
78337;BME280;67610;51.588;7.002;2023-08-01T11:28:03;99311.03;;;23.10;58.83
78337;BME280;67610;51.588;7.002;2023-08-01T11:30:32;99306.72;;;23.04;57.52
78337;BME280;67610;51.588;7.002;2023-08-01T11:32:58;99313.09;;;22.87;57.94
78337;BME280;67610;51.588;7.002;2023-08-01T11:35:23;99306.44;;;22.95;57.78
78337;BME280;67610;51.588;7.002;2023-08-01T11:37:50;99310.72;;;22.91;56.70
78337;BME280;67610;51.588;7.002;2023-08-01T11:40:17;99317.75;;;23.12;56.16
78337;BME280;67610;51.588;7.002;2023-08-01T11:42:42;99319.41;;;23.33;56.45
78337;BME280;67610;51.588;7.002;2023-08-01T11:45:09;99312.75;;;23.56;54.23
78337;BME280;67610;51.588;7.002;2023-08-01T11:47:35;99317.56;;;23.44;54.79
78337;BME280;67610;51.588;7.002;2023-08-01T11:50:01;99321.28;;;23.28;54.60
78337;BME280;67610;51.588;7.002;2023-08-01T11:52:27;99326.63;;;23.23;53.98
78337;BME280;67610;51.588;7.002;2023-08-01T11:54:53;99320.47;;;23.17;54.86
78337;BME280;67610;51.588;7.002;2023-08-01T11:57:20;99328.25;;;23.24;54.52
78337;BME280;67610;51.588;7.002;2023-08-01T11:59:51;99322.34;;;23.22;52.97
78337;BME280;67610;51.588;7.002;2023-08-01T12:02:43;99329.38;;;23.38;52.49
78337;BME280;67610;51.588;7.002;2023-08-01T12:05:09;99329.13;;;23.65;52.69
78337;BME280;67610;51.588;7.002;2023-08-01T12:07:34;99327.78;;;24.02;51.66
78337;BME280;67610;51.588;7.002;2023-08-01T12:10:00;99329.09;;;24.30;51.44
78337;BME280;67610;51.588;7.002;2023-08-01T12:12:27;99334.72;;;24.34;51.09
78337;BME280;67610;51.588;7.002;2023-08-01T12:14:52;99338.47;;;24.38;49.35
78337;BME280;67610;51.588;7.002;2023-08-01T12:17:19;99337.69;;;24.27;49.13
78337;BME280;67610;51.588;7.002;2023-08-01T12:19:44;99349.53;;;24.21;50.65
78337;BME280;67610;51.588;7.002;2023-08-01T12:22:09;99347.91;;;24.25;48.34
78337;BME280;67610;51.588;7.002;2023-08-01T12:24:35;99344.41;;;24.04;49.41
78337;BME280;67610;51.588;7.002;2023-08-01T12:27:06;99350.06;;;23.93;50.00
78337;BME280;67610;51.588;7.002;2023-08-01T12:29:31;99350.06;;;23.88;49.52
78337;BME280;67610;51.588;7.002;2023-08-01T12:31:56;99351.66;;;23.74;50.11
78337;BME280;67610;51.588;7.002;2023-08-01T12:34:22;99353.03;;;23.86;49.30
78337;BME280;67610;51.588;7.002;2023-08-01T12:36:47;99348.19;;;24.08;49.84
78337;BME280;67610;51.588;7.002;2023-08-01T12:39:12;99357.56;;;24.36;49.80
78337;BME280;67610;51.588;7.002;2023-08-01T12:41:38;99358.91;;;24.39;48.50
78337;BME280;67610;51.588;7.002;2023-08-01T12:44:04;99358.94;;;24.13;49.41
78337;BME280;67610;51.588;7.002;2023-08-01T12:46:30;99352.22;;;24.16;49.73
78337;BME280;67610;51.588;7.002;2023-08-01T12:48:55;99353.28;;;24.20;50.30
78337;BME280;67610;51.588;7.002;2023-08-01T12:51:20;99358.94;;;24.18;49.75
78337;BME280;67610;51.588;7.002;2023-08-01T12:53:46;99355.72;;;24.16;49.19
78337;BME280;67610;51.588;7.002;2023-08-01T12:56:11;99361.34;;;24.10;49.94
78337;BME280;67610;51.588;7.002;2023-08-01T12:58:37;99354.09;;;24.15;48.34